createdAt,value
2022-09-28T00:01:24.983Z,9.00
2022-09-28T00:03:57.440Z,9.10
2022-09-28T00:06:29.929Z,9.10
2022-09-28T00:08:59.258Z,9.10
2022-09-28T00:11:29.103Z,9.10
2022-09-28T00:14:01.824Z,9.10
2022-09-28T00:16:33.181Z,9.10
2022-09-28T00:19:02.456Z,9.10
2022-09-28T00:21:34.210Z,9.20
2022-09-28T00:24:15.193Z,9.20
2022-09-28T00:26:48.448Z,9.20
2022-09-28T00:29:23.384Z,9.20
2022-09-28T00:31:59.726Z,9.20
2022-09-28T00:34:28.475Z,9.20
2022-09-28T00:36:58.034Z,9.20
2022-09-28T00:39:27.050Z,9.20
2022-09-28T00:41:55.985Z,9.20
2022-09-28T00:44:47.542Z,9.20
2022-09-28T00:47:51.467Z,9.20
2022-09-28T00:50:25.743Z,9.30
2022-09-28T00:53:01.601Z,9.20
2022-09-28T00:55:38.987Z,9.30
2022-09-28T00:58:12.373Z,9.30
2022-09-28T01:00:42.172Z,9.30
2022-09-28T01:03:11.526Z,9.30
2022-09-28T01:05:41.612Z,9.30
2022-09-28T01:08:13.309Z,9.30
2022-09-28T01:10:43.748Z,9.30
2022-09-28T01:13:13.826Z,9.30
2022-09-28T01:15:53.322Z,9.30
2022-09-28T01:18:39.644Z,9.30
2022-09-28T01:21:13.514Z,9.30
2022-09-28T01:24:15.327Z,9.30
2022-09-28T01:27:04.780Z,9.40
2022-09-28T01:29:46.797Z,9.30
2022-09-28T01:32:33.037Z,9.30
2022-09-28T01:35:10.232Z,9.40
2022-09-28T01:37:51.888Z,9.40
2022-09-28T01:40:23.784Z,9.40
2022-09-28T01:43:00.519Z,9.40
2022-09-28T01:45:36.638Z,9.40
2022-09-28T01:48:08.870Z,9.40
2022-09-28T01:50:42.093Z,9.40
2022-09-28T01:53:18.517Z,9.50
2022-09-28T01:55:52.660Z,9.40
2022-09-28T01:58:29.868Z,9.40
2022-09-28T02:01:05.477Z,9.50
2022-09-28T02:03:42.244Z,9.50
2022-09-28T02:06:17.532Z,9.50
2022-09-28T02:08:53.857Z,9.50
2022-09-28T02:11:25.265Z,9.50
2022-09-28T02:14:01.260Z,9.50
2022-09-28T02:16:38.167Z,9.50
2022-09-28T02:19:09.402Z,9.50
2022-09-28T02:21:45.529Z,9.50
2022-09-28T02:24:21.789Z,9.50
2022-09-28T02:26:54.544Z,9.50
2022-09-28T02:29:25.289Z,9.50
2022-09-28T02:31:53.919Z,9.50
2022-09-28T02:34:22.235Z,9.50
2022-09-28T02:36:50.602Z,9.50
2022-09-28T02:39:19.614Z,9.60
2022-09-28T02:42:02.902Z,9.50
2022-09-28T02:45:01.225Z,9.60
2022-09-28T02:47:55.248Z,9.60
2022-09-28T02:50:49.845Z,9.50
2022-09-28T02:53:46.853Z,9.50
2022-09-28T02:56:38.508Z,9.50
2022-09-28T02:59:21.485Z,9.50
2022-09-28T03:01:59.741Z,9.50
2022-09-28T03:04:40.328Z,9.50
2022-09-28T03:07:25.392Z,9.50
2022-09-28T03:10:04.434Z,9.50
2022-09-28T03:12:33.270Z,9.50
2022-09-28T03:15:14.000Z,9.50
2022-09-28T03:17:44.413Z,9.50
2022-09-28T03:20:14.846Z,9.60
2022-09-28T03:22:51.941Z,9.60
2022-09-28T03:25:28.759Z,9.60
2022-09-28T03:27:57.096Z,9.60
2022-09-28T03:30:25.770Z,9.60
2022-09-28T03:33:00.251Z,9.60
2022-09-28T03:35:30.431Z,9.60
2022-09-28T03:37:58.717Z,9.60
2022-09-28T03:40:29.271Z,9.60
2022-09-28T03:42:57.645Z,9.60
2022-09-28T03:45:26.645Z,9.60
2022-09-28T03:47:54.926Z,9.60
2022-09-28T03:50:24.438Z,9.60
2022-09-28T03:52:53.130Z,9.50
2022-09-28T03:55:21.224Z,9.60
2022-09-28T03:57:55.804Z,9.60
2022-09-28T04:00:24.179Z,9.60
2022-09-28T04:02:52.485Z,9.60
2022-09-28T04:05:20.708Z,9.60
2022-09-28T04:07:50.625Z,9.60
2022-09-28T04:10:18.831Z,9.60
2022-09-28T04:12:47.034Z,9.60
2022-09-28T04:15:16.335Z,9.60
2022-09-28T04:17:44.794Z,9.70
2022-09-28T04:20:26.541Z,9.70
2022-09-28T04:23:04.050Z,9.70
2022-09-28T04:25:32.512Z,9.70
2022-09-28T04:28:18.137Z,9.70
2022-09-28T04:30:48.661Z,9.70
2022-09-28T04:33:17.782Z,9.70
2022-09-28T04:35:46.085Z,9.70
2022-09-28T04:38:23.437Z,9.70
2022-09-28T04:40:58.977Z,9.70
2022-09-28T04:43:27.658Z,9.70
2022-09-28T04:46:00.495Z,9.70
2022-09-28T04:48:33.107Z,9.70
2022-09-28T04:51:10.003Z,9.70
2022-09-28T04:53:39.741Z,9.70
2022-09-28T04:56:11.828Z,9.70
2022-09-28T04:58:42.231Z,9.70
2022-09-28T05:01:16.583Z,9.70
2022-09-28T05:04:04.922Z,9.70
2022-09-28T05:06:53.351Z,9.70
2022-09-28T05:09:22.985Z,9.70
2022-09-28T05:11:53.639Z,9.70
2022-09-28T05:14:24.405Z,9.70
2022-09-28T05:16:53.507Z,9.70
2022-09-28T05:19:28.089Z,9.70
2022-09-28T05:22:04.471Z,9.70
2022-09-28T05:24:39.814Z,9.80
2022-09-28T05:27:08.074Z,9.80
2022-09-28T05:29:36.296Z,9.80
2022-09-28T05:32:42.803Z,9.90
2022-09-28T05:35:27.545Z,9.90
2022-09-28T05:37:56.232Z,9.90
2022-09-28T05:40:25.797Z,10.00
2022-09-28T05:42:54.000Z,10.00
2022-09-28T05:45:22.307Z,10.00
2022-09-28T05:47:51.343Z,10.10
2022-09-28T05:50:22.533Z,10.10
2022-09-28T05:53:00.410Z,10.20
2022-09-28T05:55:30.494Z,10.20
2022-09-28T05:58:02.960Z,10.20
2022-09-28T06:00:33.834Z,10.20
2022-09-28T06:03:08.876Z,10.20
2022-09-28T06:05:39.326Z,10.20
2022-09-28T06:08:10.276Z,10.30
2022-09-28T06:10:41.209Z,10.30
2022-09-28T06:13:10.396Z,10.30
2022-09-28T06:15:46.249Z,10.40
2022-09-28T06:18:16.088Z,10.40
2022-09-28T06:21:02.949Z,10.40
2022-09-28T06:23:39.993Z,10.40
2022-09-28T06:26:10.220Z,10.50
2022-09-28T06:28:38.401Z,10.50
2022-09-28T06:31:07.479Z,10.60
2022-09-28T06:33:43.358Z,10.60
2022-09-28T06:36:11.711Z,10.70
2022-09-28T06:38:39.889Z,10.80
2022-09-28T06:41:10.146Z,10.80
2022-09-28T06:43:40.138Z,10.90
2022-09-28T06:46:14.792Z,10.90
2022-09-28T06:48:49.883Z,10.90
2022-09-28T06:51:33.626Z,11.00
2022-09-28T06:54:25.579Z,11.00
2022-09-28T06:57:05.467Z,11.00
2022-09-28T06:59:33.751Z,11.10
2022-09-28T07:02:02.537Z,11.10
2022-09-28T07:04:49.866Z,11.10
2022-09-28T07:07:57.833Z,11.20
2022-09-28T07:10:46.819Z,11.20
2022-09-28T07:16:16.881Z,11.30
2022-09-28T07:18:45.307Z,11.40
2022-09-28T07:21:25.482Z,11.40
2022-09-28T07:23:57.024Z,11.40
2022-09-28T07:26:25.617Z,11.40
2022-09-28T07:29:06.999Z,11.40
2022-09-28T07:31:40.239Z,11.40
2022-09-28T07:34:26.877Z,11.40
2022-09-28T07:37:02.884Z,11.40
2022-09-28T07:39:31.006Z,11.50
2022-09-28T07:42:02.525Z,11.50
2022-09-28T07:44:33.693Z,11.50
2022-09-28T07:47:02.558Z,11.50
2022-09-28T07:49:51.945Z,11.60
2022-09-28T07:52:39.726Z,11.60
2022-09-28T07:55:37.304Z,11.70
2022-09-28T07:58:33.935Z,11.80
2022-09-28T08:01:27.907Z,11.90
2022-09-28T08:03:56.584Z,11.90
2022-09-28T08:06:25.450Z,12.00
2022-09-28T08:08:56.275Z,12.00
2022-09-28T08:11:31.174Z,12.10
2022-09-28T08:14:24.961Z,12.20
2022-09-28T08:17:13.406Z,12.30
2022-09-28T08:20:03.854Z,12.40
2022-09-28T08:22:32.795Z,12.40
2022-09-28T08:25:02.011Z,12.50
2022-09-28T08:27:30.836Z,12.70
2022-09-28T08:29:59.236Z,12.90
2022-09-28T08:32:54.175Z,13.10
2022-09-28T08:35:42.009Z,13.40
2022-09-28T08:38:23.377Z,13.70
2022-09-28T08:41:37.093Z,14.00
2022-09-28T08:47:39.216Z,14.20
2022-09-28T08:50:48.151Z,13.90
2022-09-28T08:53:46.050Z,13.70
2022-09-28T08:56:33.546Z,13.50
2022-09-28T08:59:06.536Z,13.50
2022-09-28T09:01:43.121Z,13.60
2022-09-28T09:04:16.229Z,13.70
2022-09-28T09:07:30.672Z,13.60
2022-09-28T09:10:30.029Z,13.50
2022-09-28T09:13:12.402Z,13.50
2022-09-28T09:15:56.174Z,13.40
2022-09-28T09:18:55.454Z,13.30
2022-09-28T09:22:01.848Z,13.30
2022-09-28T09:24:45.410Z,13.30
2022-09-28T09:27:39.384Z,13.20
2022-09-28T09:30:12.819Z,13.00
2022-09-28T09:33:12.060Z,12.90
2022-09-28T09:36:21.012Z,12.80
2022-09-28T09:39:42.409Z,12.60
2022-09-28T09:42:50.725Z,12.40
2022-09-28T09:45:58.578Z,12.30
2022-09-28T09:48:51.435Z,12.30
2022-09-28T09:51:34.849Z,12.30
2022-09-28T09:54:12.817Z,12.30
2022-09-28T09:56:48.493Z,12.20
2022-09-28T09:59:44.476Z,12.20
2022-09-28T10:02:28.539Z,12.20
2022-09-28T10:05:20.004Z,12.20
2022-09-28T10:07:56.984Z,12.40
2022-09-28T10:10:30.562Z,12.50
2022-09-28T10:13:10.917Z,12.60
2022-09-28T10:15:41.978Z,12.70
2022-09-28T10:18:35.912Z,12.70
2022-09-28T10:21:24.850Z,12.60
2022-09-28T10:24:03.216Z,12.60
2022-09-28T10:26:36.914Z,12.50
2022-09-28T10:29:16.864Z,12.50
2022-09-28T10:31:48.347Z,12.50
2022-09-28T10:34:30.319Z,12.50
2022-09-28T10:37:11.389Z,12.50
2022-09-28T10:40:34.061Z,12.60
2022-09-28T10:43:06.099Z,12.70
2022-09-28T10:45:38.643Z,12.80
2022-09-28T10:48:18.271Z,13.00
2022-09-28T10:51:01.423Z,13.20
2022-09-28T10:53:29.776Z,13.50
2022-09-28T10:56:23.433Z,13.70
2022-09-28T10:59:01.579Z,13.90
2022-09-28T11:01:47.860Z,14.20
2022-09-28T11:04:25.545Z,14.40
2022-09-28T11:09:35.892Z,15.10
2022-09-28T11:12:34.234Z,15.50
2022-09-28T11:15:07.674Z,15.80
2022-09-28T11:17:41.602Z,15.90
2022-09-28T11:20:35.481Z,16.00
2022-09-28T11:23:22.374Z,15.90
2022-09-28T11:26:03.594Z,15.60
2022-09-28T11:28:34.950Z,15.40
2022-09-28T11:31:12.805Z,15.40
2022-09-28T11:34:08.286Z,15.80
2022-09-28T11:37:15.213Z,16.10
2022-09-28T11:40:00.017Z,16.50
2022-09-28T11:42:47.465Z,16.70
2022-09-28T11:45:41.996Z,17.00
2022-09-28T11:48:16.575Z,17.30
2022-09-28T11:50:55.528Z,17.80
2022-09-28T11:53:32.538Z,17.80
2022-09-28T11:56:15.727Z,17.50
2022-09-28T11:58:50.015Z,17.00
2022-09-28T12:01:28.668Z,16.50
2022-09-28T12:04:32.839Z,16.10
2022-09-28T12:07:14.751Z,15.70
2022-09-28T12:09:53.274Z,15.30
2022-09-28T12:12:35.524Z,15.00
2022-09-28T12:15:22.488Z,14.80
2022-09-28T12:17:55.618Z,14.80
2022-09-28T12:20:28.124Z,15.10
2022-09-28T12:23:08.219Z,15.90
2022-09-28T12:25:46.195Z,16.70
2022-09-28T12:28:27.747Z,17.10
2022-09-28T12:31:00.941Z,17.00
2022-09-28T12:33:29.136Z,16.80
2022-09-28T12:36:17.081Z,16.70
2022-09-28T12:39:35.603Z,16.60
2022-09-28T12:42:16.547Z,16.70
2022-09-28T12:45:11.079Z,17.30
2022-09-28T12:48:11.414Z,17.10
2022-09-28T12:50:56.876Z,16.80
2022-09-28T12:54:01.548Z,16.40
2022-09-28T12:56:44.490Z,16.20
2022-09-28T12:59:25.245Z,16.00
2022-09-28T13:02:36.871Z,15.90
2022-09-28T13:05:39.075Z,16.00
2022-09-28T13:08:15.352Z,17.20
2022-09-28T13:11:05.455Z,18.30
2022-09-28T13:13:52.987Z,18.90
2022-09-28T13:16:33.635Z,19.30
2022-09-28T13:19:14.204Z,19.00
2022-09-28T13:21:50.551Z,18.30
2022-09-28T13:24:32.604Z,17.70
2022-09-28T13:27:11.597Z,17.20
2022-09-28T13:29:41.745Z,16.80
2022-09-28T13:32:12.609Z,16.60
2022-09-28T13:34:41.282Z,16.30
2022-09-28T13:37:24.013Z,16.20
2022-09-28T13:39:56.338Z,16.00
2022-09-28T13:43:03.140Z,15.90
2022-09-28T13:45:50.729Z,15.80
2022-09-28T13:48:24.281Z,15.70
2022-09-28T13:51:23.079Z,15.70
2022-09-28T13:54:29.463Z,15.70
2022-09-28T13:57:19.612Z,15.60
2022-09-28T14:00:10.367Z,15.60
2022-09-28T14:02:46.259Z,15.60
2022-09-28T14:05:41.805Z,15.60
2022-09-28T14:08:31.909Z,15.60
2022-09-28T14:11:59.655Z,15.60
2022-09-28T14:14:32.835Z,15.70
2022-09-28T14:17:54.183Z,15.60
2022-09-28T14:20:31.336Z,15.50
2022-09-28T14:23:34.285Z,15.30
2022-09-28T14:26:49.497Z,15.10
2022-09-28T14:29:29.851Z,14.90
2022-09-28T14:31:59.864Z,14.80
2022-09-28T14:34:36.203Z,14.70
2022-09-28T14:37:36.326Z,14.60
2022-09-28T14:40:36.017Z,14.50
2022-09-28T14:43:38.153Z,14.30
2022-09-28T14:46:36.097Z,14.20
2022-09-28T14:49:23.274Z,14.20
2022-09-28T14:52:14.435Z,14.10
2022-09-28T14:54:52.076Z,14.00
2022-09-28T14:57:26.110Z,14.00
2022-09-28T14:59:59.449Z,14.00
2022-09-28T15:02:33.447Z,13.90
2022-09-28T15:05:15.551Z,13.90
2022-09-28T15:07:49.537Z,13.80
2022-09-28T15:10:31.995Z,13.80
2022-09-28T15:13:02.757Z,13.80
2022-09-28T15:15:35.972Z,13.80
2022-09-28T15:18:28.786Z,13.90
2022-09-28T15:20:58.605Z,13.90
2022-09-28T15:23:36.438Z,13.90
2022-09-28T15:26:08.419Z,14.00
2022-09-28T15:28:39.311Z,14.10
2022-09-28T15:31:07.560Z,14.80
2022-09-28T15:33:53.966Z,16.60
2022-09-28T15:36:26.094Z,17.80
2022-09-28T15:39:01.108Z,18.00
2022-09-28T15:41:31.065Z,17.60
2022-09-28T15:44:18.427Z,17.00
2022-09-28T15:46:50.539Z,16.50
2022-09-28T15:49:38.073Z,16.10
2022-09-28T15:52:08.808Z,15.70
2022-09-28T15:54:44.577Z,15.50
2022-09-28T15:57:34.205Z,15.30
2022-09-28T16:00:03.197Z,15.10
2022-09-28T16:02:40.255Z,15.00
2022-09-28T16:05:35.855Z,14.80
2022-09-28T16:08:06.687Z,14.70
2022-09-28T16:10:37.613Z,14.60
2022-09-28T16:13:17.789Z,14.50
2022-09-28T16:15:46.256Z,14.40
2022-09-28T16:18:22.142Z,14.30
2022-09-28T16:20:53.313Z,14.20
2022-09-28T16:23:26.843Z,14.10
2022-09-28T16:26:02.460Z,14.10
2022-09-28T16:28:51.945Z,14.00
2022-09-28T16:31:37.132Z,13.90
2022-09-28T16:34:21.068Z,13.70
2022-09-28T16:36:51.463Z,13.60
2022-09-28T16:39:20.676Z,13.40
2022-09-28T16:41:56.664Z,13.30
2022-09-28T16:44:30.658Z,13.20
2022-09-28T16:47:00.902Z,13.10
2022-09-28T16:49:32.127Z,13.00
2022-09-28T16:52:00.328Z,12.90
2022-09-28T16:54:47.729Z,12.80
2022-09-28T16:57:17.529Z,12.60
2022-09-28T16:59:45.663Z,12.50
2022-09-28T17:05:08.974Z,12.20
2022-09-28T17:07:37.591Z,12.10
2022-09-28T17:10:18.389Z,12.00
2022-09-28T17:12:48.006Z,12.00
2022-09-28T17:15:19.556Z,11.90
2022-09-28T17:17:48.484Z,11.90
2022-09-28T17:20:23.714Z,11.90
2022-09-28T17:22:53.343Z,11.90
2022-09-28T17:25:23.861Z,11.80
2022-09-28T17:27:57.254Z,11.80
2022-09-28T17:30:26.348Z,11.80
2022-09-28T17:32:54.581Z,11.80
2022-09-28T17:35:24.603Z,11.70
2022-09-28T17:37:53.886Z,11.70
2022-09-28T17:40:25.601Z,11.70
2022-09-28T17:42:56.434Z,11.60
2022-09-28T17:45:26.919Z,11.60
2022-09-28T17:47:55.761Z,11.50
2022-09-28T17:50:27.344Z,11.50
2022-09-28T17:52:58.015Z,11.50
2022-09-28T17:55:30.386Z,11.40
2022-09-28T17:58:01.023Z,11.40
2022-09-28T18:00:29.965Z,11.40
2022-09-28T18:02:59.563Z,11.30
2022-09-28T18:05:29.329Z,11.30
2022-09-28T18:07:58.762Z,11.20
2022-09-28T18:10:27.574Z,11.20
2022-09-28T18:12:55.770Z,11.10
2022-09-28T18:15:25.280Z,11.10
2022-09-28T18:17:53.552Z,11.00
2022-09-28T18:20:21.953Z,11.00
2022-09-28T18:22:50.166Z,10.90
2022-09-28T18:25:18.623Z,10.90
2022-09-28T18:27:47.010Z,10.80
2022-09-28T18:30:15.293Z,10.80
2022-09-28T18:32:45.114Z,10.70
2022-09-28T18:35:13.275Z,10.70
2022-09-28T18:37:42.632Z,10.60
2022-09-28T18:40:14.076Z,10.60
2022-09-28T18:42:43.644Z,10.50
2022-09-28T18:45:13.134Z,10.40
2022-09-28T18:47:42.191Z,10.40
2022-09-28T18:50:15.250Z,10.30
2022-09-28T18:52:47.231Z,10.20
2022-09-28T18:55:15.824Z,10.20
2022-09-28T18:57:44.680Z,10.10
2022-09-28T19:00:16.150Z,10.00
2022-09-28T19:02:44.912Z,10.00
2022-09-28T19:05:14.467Z,9.90
2022-09-28T19:07:42.638Z,9.90
2022-09-28T19:10:10.871Z,9.80
2022-09-28T19:12:39.077Z,9.70
2022-09-28T19:15:08.750Z,9.70
2022-09-28T19:17:37.022Z,9.60
2022-09-28T19:20:06.361Z,9.60
2022-09-28T19:22:35.903Z,9.50
2022-09-28T19:25:04.405Z,9.50
2022-09-28T19:27:32.571Z,9.40
2022-09-28T19:30:00.772Z,9.40
2022-09-28T19:32:30.346Z,9.30
2022-09-28T19:34:59.332Z,9.20
2022-09-28T19:37:27.660Z,9.20
2022-09-28T19:39:57.252Z,9.10
2022-09-28T19:42:25.437Z,9.10
2022-09-28T19:44:53.619Z,9.00
2022-09-28T19:47:22.135Z,9.00
2022-09-28T19:49:51.027Z,8.90
2022-09-28T19:52:19.174Z,8.80
2022-09-28T19:54:56.601Z,8.80
2022-09-28T19:57:28.771Z,8.70
2022-09-28T20:00:02.020Z,8.60
2022-09-28T20:02:34.130Z,8.50
2022-09-28T20:05:02.420Z,8.50
2022-09-28T20:07:32.981Z,8.40
2022-09-28T20:10:01.380Z,8.40
2022-09-28T20:12:30.906Z,8.30
2022-09-28T20:14:59.142Z,8.30
2022-09-28T20:17:27.572Z,8.30
2022-09-28T20:19:55.754Z,8.20
2022-09-28T20:22:23.973Z,8.20
2022-09-28T20:24:52.135Z,8.10
2022-09-28T20:27:23.152Z,8.10
2022-09-28T20:29:55.671Z,8.10
2022-09-28T20:32:23.871Z,8.00
2022-09-28T20:34:52.092Z,8.00
2022-09-28T20:37:20.187Z,8.00
2022-09-28T20:39:48.822Z,8.00
2022-09-28T20:42:17.001Z,8.00
2022-09-28T20:44:45.615Z,8.00
2022-09-28T20:47:21.140Z,8.00
2022-09-28T20:49:49.302Z,8.00
2022-09-28T20:52:17.463Z,7.90
2022-09-28T20:54:45.658Z,7.90
2022-09-28T20:57:20.444Z,7.80
2022-09-28T20:59:54.773Z,7.80
2022-09-28T21:02:25.154Z,7.70
2022-09-28T21:04:54.045Z,7.70
2022-09-28T21:07:22.149Z,7.60
2022-09-28T21:09:50.460Z,7.60
2022-09-28T21:12:19.078Z,7.50
2022-09-28T21:14:47.189Z,7.50
2022-09-28T21:17:15.427Z,7.40
2022-09-28T21:19:45.520Z,7.40
2022-09-28T21:22:13.777Z,7.40
2022-09-28T21:24:41.994Z,7.30
2022-09-28T21:27:10.508Z,7.30
2022-09-28T21:29:38.650Z,7.30
2022-09-28T21:32:08.108Z,7.20
2022-09-28T21:34:36.713Z,7.20
2022-09-28T21:37:06.621Z,7.10
2022-09-28T21:39:34.764Z,7.10
2022-09-28T21:42:02.974Z,7.00
2022-09-28T21:44:31.077Z,7.00
2022-09-28T21:46:59.302Z,6.90
2022-09-28T21:49:27.487Z,6.90
2022-09-28T21:51:55.611Z,6.90
2022-09-28T21:54:25.194Z,6.80
2022-09-28T21:56:53.357Z,6.80
2022-09-28T21:59:21.505Z,6.70
2022-09-28T22:01:49.773Z,6.70
2022-09-28T22:04:27.810Z,6.60
2022-09-28T22:06:55.941Z,6.60
2022-09-28T22:09:25.616Z,6.60
2022-09-28T22:11:53.744Z,6.60
2022-09-28T22:14:22.224Z,6.50
2022-09-28T22:16:50.397Z,6.50
2022-09-28T22:19:21.971Z,6.40
2022-09-28T22:21:50.134Z,6.40
2022-09-28T22:24:18.552Z,6.40
2022-09-28T22:26:52.719Z,6.30
2022-09-28T22:29:21.580Z,6.30
2022-09-28T22:31:49.809Z,6.30
2022-09-28T22:34:18.065Z,6.20
2022-09-28T22:36:46.233Z,6.20
2022-09-28T22:39:14.660Z,6.20
2022-09-28T22:41:42.776Z,6.10
2022-09-28T22:44:12.261Z,6.10
2022-09-28T22:46:40.557Z,6.10
2022-09-28T22:49:11.520Z,6.00
2022-09-28T22:51:40.358Z,6.00
2022-09-28T22:54:08.474Z,6.00
2022-09-28T22:56:36.613Z,6.00
2022-09-28T22:59:04.891Z,6.10
2022-09-28T23:01:35.714Z,6.10
2022-09-28T23:04:04.029Z,6.10
2022-09-28T23:06:33.173Z,6.20
2022-09-28T23:09:02.193Z,6.20
2022-09-28T23:11:30.724Z,6.30
2022-09-28T23:14:00.782Z,6.30
2022-09-28T23:16:30.149Z,6.30
2022-09-28T23:18:59.843Z,6.40
2022-09-28T23:21:29.273Z,6.40
2022-09-28T23:24:00.927Z,6.50
2022-09-28T23:26:31.731Z,6.50
2022-09-28T23:29:00.954Z,6.60
2022-09-28T23:31:31.140Z,6.60
2022-09-28T23:34:02.714Z,6.70
2022-09-28T23:36:31.404Z,6.70
2022-09-28T23:38:59.940Z,6.80
2022-09-28T23:41:28.140Z,6.80
2022-09-28T23:43:56.334Z,6.80
2022-09-28T23:46:24.631Z,6.80
2022-09-28T23:48:53.249Z,6.90
2022-09-28T23:51:22.753Z,6.90
2022-09-28T23:53:50.864Z,6.90
2022-09-28T23:56:19.037Z,6.90
2022-09-28T23:58:47.158Z,7.00
